Orchard Park, NY (14127)

7:50 AM EDT on April 27, 2015 (GMT -0400)
Hawthorne Dr. | | Change Station
CLOSE
Current Station
Personal Weather Station
Location: Orchard Park, NY
Elevation: 787 ft
Nearby Weather Stations

Elev 787 ft 42.78 °N, 78.74 °W | Updated 6 seconds ago

Overcast
Overcast
40.5 °F
Feels Like 40 °F
N
0.0
Wind Variable Wind from NE
Gusts 3.0 mph

Today
High -- | Low -- °F
--% Chance of Precip.
Yesterday
High -- | Low -- °F
Precip. -- in
6:15 AM 8:10 PM
Waxing Gibbous, 64% visible
Pressure 29.81 in
Visibility 10.0 miles
Clouds Mostly Cloudy 900 ft
Overcast 1900 ft
Windchill 40 °F
Dew Point 39 °F
Humidity 94%
Rainfall 0.00 in
Snow Depth Not available.
UV 0 out of 12
Pollen 10.00 out of 12
Air Quality Not available.
Flu Activity Widespread
SPECI KBUF 271132Z 34008KT 10SM -RA BKN009 OVC019 05/03 A2981 RMK AO2 RAB09 P0000 T00500028

More Conditions Fewer Conditions

Pressure 29.81 in
Visibility 10.0 miles
Clouds Mostly Cloudy 900 ft
Overcast 1900 ft
Windchill 40 °F
Dew Point 39 °F
Humidity 94%
Rainfall 0.00 in
Snow Depth Not available.
UV 0 out of 12
Pollen 10.00 out of 12
Air Quality Not available.
Flu Activity Widespread
SPECI KBUF 271132Z 34008KT 10SM -RA BKN009 OVC019 05/03 A2981 RMK AO2 RAB09 P0000 T00500028

More Conditions Fewer Conditions

10-Day Weather Forecast

Almanac

Astronomy

Apr. 27, 2015 Rise Set
Actual Time
Civil Twilight
Nautical Twilight
Astronomical Twilight
Moon
Length of Visible Light
Length of Day
Tomorrow will be .
, % of the Moon is Illuminated

Today's Extremes

State Highs State Lows

Community

WunderPhotos

Upload Photos

1,817,283 photos uploaded!

WunderBlogs® & News

Nearby

Air Quality

  Air Quality AQ Index Pollutant
Not available.

Snow Depth

Station Depth Elevation

Earthquake Activity

City Distance Mag. Time & Date
Minimum magnitude displayed is 2.5.

Coastal Water Temperatures

Place Temperature

Stations

Nearby Weather Stations

Station Location Temp. Windchill Dew Point Humidity Wind Precip. Elev Updated Type